createdAt,value
2018-08-04T00:00:56.318Z,0.00
2018-08-04T00:02:49.141Z,0.00
2018-08-04T00:03:49.108Z,0.00
2018-08-04T00:05:41.961Z,0.00
2018-08-04T00:06:41.918Z,0.00
2018-08-04T00:08:34.739Z,0.00
2018-08-04T00:09:34.714Z,0.00
2018-08-04T00:11:27.536Z,0.00
2018-08-04T00:12:27.502Z,0.00
2018-08-04T00:14:20.329Z,0.00
2018-08-04T00:15:20.304Z,0.00
2018-08-04T00:17:13.158Z,0.00
2018-08-04T00:18:13.102Z,0.00
2018-08-04T00:20:05.940Z,0.00
2018-08-04T00:21:05.902Z,0.00
2018-08-04T00:22:58.719Z,0.00
2018-08-04T00:23:58.688Z,0.00
2018-08-04T00:25:51.510Z,0.00
2018-08-04T00:26:51.480Z,0.00
2018-08-04T00:28:44.295Z,0.00
2018-08-04T00:29:44.269Z,0.00
2018-08-04T00:31:37.116Z,0.00
2018-08-04T00:32:37.059Z,0.00
2018-08-04T00:34:29.893Z,0.00
2018-08-04T00:35:29.874Z,0.00
2018-08-04T00:37:22.703Z,0.00
2018-08-04T00:38:22.649Z,0.00
2018-08-04T00:40:15.502Z,0.00
2018-08-04T00:41:15.455Z,0.00
2018-08-04T00:43:08.286Z,0.00
2018-08-04T00:44:08.246Z,0.00
2018-08-04T00:46:01.069Z,0.00
2018-08-04T00:47:01.043Z,0.00
2018-08-04T00:48:53.886Z,0.00
2018-08-04T00:49:53.841Z,0.00
2018-08-04T00:51:46.673Z,0.00
2018-08-04T00:52:46.632Z,0.00
2018-08-04T00:54:39.451Z,0.00
2018-08-04T00:55:39.428Z,0.00
2018-08-04T00:57:32.259Z,0.00
2018-08-04T00:58:32.220Z,0.00
2018-08-04T01:00:25.039Z,0.00
2018-08-04T01:01:25.033Z,0.00
2018-08-04T01:03:17.849Z,0.00
2018-08-04T01:04:17.814Z,0.00
2018-08-04T01:06:10.651Z,0.00
2018-08-04T01:07:10.620Z,0.00
2018-08-04T01:09:03.559Z,0.00
2018-08-04T01:10:03.436Z,0.00
2018-08-04T01:11:56.256Z,0.00
2018-08-04T01:12:56.235Z,0.00
2018-08-04T01:14:49.076Z,0.00
2018-08-04T01:15:49.016Z,0.00
2018-08-04T01:17:41.859Z,0.00
2018-08-04T01:18:41.831Z,0.00
2018-08-04T01:20:34.670Z,0.00
2018-08-04T01:21:34.621Z,0.00
2018-08-04T01:23:27.452Z,0.00
2018-08-04T01:24:27.411Z,0.00
2018-08-04T01:26:20.394Z,0.00
2018-08-04T01:27:20.215Z,0.00
2018-08-04T01:29:13.056Z,0.00
2018-08-04T01:30:12.994Z,0.00
2018-08-04T01:32:05.832Z,0.00
2018-08-04T01:33:05.796Z,0.00
2018-08-04T01:34:58.644Z,0.00
2018-08-04T01:35:58.595Z,0.00
2018-08-04T01:37:51.412Z,0.00
2018-08-04T01:38:51.379Z,0.00
2018-08-04T01:40:44.217Z,0.00
2018-08-04T01:41:44.180Z,0.00
2018-08-04T01:43:37.016Z,0.00
2018-08-04T01:44:36.968Z,0.00
2018-08-04T01:46:29.810Z,0.00
2018-08-04T01:47:29.768Z,0.00
2018-08-04T01:49:22.593Z,0.00
2018-08-04T01:50:22.586Z,0.00
2018-08-04T01:52:15.420Z,0.00
2018-08-04T01:53:15.370Z,0.00
2018-08-04T01:55:08.206Z,0.00
2018-08-04T01:56:08.164Z,0.00
2018-08-04T01:58:00.986Z,0.00
2018-08-04T01:59:01.005Z,0.00
2018-08-04T02:00:53.796Z,0.00
2018-08-04T02:01:53.748Z,0.00
2018-08-04T02:03:46.576Z,0.00
2018-08-04T02:04:46.541Z,0.00
2018-08-04T02:06:39.357Z,0.00
2018-08-04T02:07:39.335Z,0.00
2018-08-04T02:09:32.172Z,0.00
2018-08-04T02:10:32.137Z,0.00
2018-08-04T02:12:24.981Z,0.00
2018-08-04T02:13:24.972Z,0.00
2018-08-04T02:15:17.779Z,0.00
2018-08-04T02:16:17.758Z,0.00
2018-08-04T02:18:10.571Z,0.00
2018-08-04T02:19:10.546Z,0.00
2018-08-04T02:21:03.377Z,0.00
2018-08-04T02:22:03.343Z,0.00
2018-08-04T02:23:56.158Z,0.00
2018-08-04T02:24:56.122Z,0.00
2018-08-04T02:26:48.968Z,0.00
2018-08-04T02:27:48.926Z,0.00
2018-08-04T02:29:41.788Z,0.00
2018-08-04T02:30:41.732Z,0.00
2018-08-04T02:32:34.531Z,0.00
2018-08-04T02:33:34.505Z,0.00
2018-08-04T02:35:27.352Z,0.00
2018-08-04T02:36:27.294Z,0.00
2018-08-04T02:38:20.129Z,0.00
2018-08-04T02:39:20.099Z,0.00
2018-08-04T02:41:12.942Z,0.00
2018-08-04T02:42:12.897Z,0.00
2018-08-04T02:44:05.733Z,0.00
2018-08-04T02:45:05.688Z,0.00
2018-08-04T02:46:58.528Z,0.00
2018-08-04T02:47:58.488Z,0.00
2018-08-04T02:49:51.331Z,0.00
2018-08-04T02:50:51.293Z,0.00
2018-08-04T02:52:44.120Z,0.00
2018-08-04T02:53:44.064Z,0.00
2018-08-04T02:55:36.906Z,0.00
2018-08-04T02:56:36.859Z,0.00
2018-08-04T02:58:29.695Z,0.00
2018-08-04T02:59:29.662Z,0.00
2018-08-04T03:01:22.499Z,0.00
2018-08-04T03:02:22.459Z,0.00
2018-08-04T03:04:15.274Z,0.00
2018-08-04T03:05:15.253Z,0.00
2018-08-04T03:07:08.088Z,0.00
2018-08-04T03:08:08.055Z,0.00
2018-08-04T03:10:00.884Z,0.00
2018-08-04T03:11:00.842Z,0.00
2018-08-04T03:12:53.684Z,0.00
2018-08-04T03:13:53.643Z,0.00
2018-08-04T03:15:46.470Z,0.00
2018-08-04T03:16:46.439Z,0.00
2018-08-04T03:18:39.269Z,0.00
2018-08-04T03:19:39.233Z,0.00
2018-08-04T03:21:32.061Z,0.00
2018-08-04T03:22:32.022Z,0.00
2018-08-04T03:24:24.871Z,0.00
2018-08-04T03:25:24.825Z,0.00
2018-08-04T03:27:17.660Z,0.00
2018-08-04T03:28:17.626Z,0.00
2018-08-04T03:30:10.435Z,0.00
2018-08-04T03:31:10.445Z,0.00
2018-08-04T03:33:03.240Z,0.00
2018-08-04T03:34:03.205Z,0.00
2018-08-04T03:35:56.053Z,4.00
2018-08-04T03:36:56.001Z,0.00
2018-08-04T03:38:48.811Z,4.00
2018-08-04T03:39:48.789Z,0.00
2018-08-04T03:41:41.634Z,4.00
2018-08-04T03:42:41.584Z,4.00
2018-08-04T03:44:34.419Z,4.00
2018-08-04T03:45:34.381Z,8.00
2018-08-04T03:47:27.204Z,12.00
2018-08-04T03:48:27.165Z,12.00
2018-08-04T03:50:19.985Z,12.00
2018-08-04T03:51:19.960Z,12.00
2018-08-04T03:53:12.811Z,20.00
2018-08-04T03:54:12.760Z,20.00
2018-08-04T03:56:06.425Z,20.00
2018-08-04T03:57:06.397Z,24.00
2018-08-04T03:58:59.245Z,28.00
2018-08-04T03:59:59.190Z,36.00
2018-08-04T04:01:52.036Z,40.00
2018-08-04T04:02:51.986Z,44.00
2018-08-04T04:04:44.821Z,44.00
2018-08-04T04:05:44.784Z,48.00
2018-08-04T04:07:37.616Z,52.00
2018-08-04T04:08:37.582Z,52.00
2018-08-04T04:10:30.439Z,56.00
2018-08-04T04:11:30.371Z,56.00
2018-08-04T04:13:23.215Z,64.00
2018-08-04T04:14:23.183Z,68.00
2018-08-04T04:16:16.001Z,76.00
2018-08-04T04:17:15.966Z,84.00
2018-08-04T04:19:08.815Z,92.00
2018-08-04T04:20:08.768Z,104.00
2018-08-04T04:22:01.576Z,124.00
2018-08-04T04:23:01.552Z,136.00
2018-08-04T04:24:54.391Z,156.00
2018-08-04T04:25:54.342Z,172.00
2018-08-04T04:27:47.166Z,200.00
2018-08-04T04:28:47.132Z,208.00
2018-08-04T04:30:39.963Z,224.00
2018-08-04T04:31:39.923Z,240.00
2018-08-04T04:33:32.743Z,268.00
2018-08-04T04:34:32.716Z,284.00
2018-08-04T04:36:25.547Z,312.00
2018-08-04T04:37:25.512Z,328.00
2018-08-04T04:39:18.352Z,384.00
2018-08-04T04:40:18.302Z,412.00
2018-08-04T04:42:11.147Z,448.00
2018-08-04T04:43:11.093Z,472.00
2018-08-04T04:45:03.938Z,524.00
2018-08-04T04:46:03.893Z,548.00
2018-08-04T04:47:56.716Z,608.00
2018-08-04T04:48:56.687Z,636.00
2018-08-04T04:50:49.537Z,684.00
2018-08-04T04:51:49.483Z,720.00
2018-08-04T04:53:42.303Z,796.00
2018-08-04T04:54:42.283Z,828.00
2018-08-04T04:56:35.614Z,872.00
2018-08-04T04:57:35.564Z,892.00
2018-08-04T04:59:28.395Z,920.00
2018-08-04T05:00:28.366Z,940.00
2018-08-04T05:02:21.709Z,960.00
2018-08-04T05:03:21.665Z,956.00
2018-08-04T05:05:14.473Z,980.00
2018-08-04T05:06:14.443Z,1008.00
2018-08-04T05:08:07.290Z,1056.00
2018-08-04T05:09:07.239Z,1072.00
2018-08-04T05:11:00.060Z,1112.00
2018-08-04T05:12:00.026Z,1124.00
2018-08-04T05:13:52.866Z,1104.00
2018-08-04T05:14:52.823Z,1080.00
2018-08-04T05:16:45.675Z,1040.00
2018-08-04T05:17:45.624Z,1032.00
2018-08-04T05:19:38.460Z,1036.00
2018-08-04T05:20:38.418Z,1052.00
2018-08-04T05:22:31.255Z,1108.00
2018-08-04T05:23:31.219Z,1136.00
2018-08-04T05:25:24.036Z,1180.00
2018-08-04T05:26:24.004Z,1204.00
2018-08-04T05:28:17.333Z,1220.00
2018-08-04T05:29:17.306Z,1220.00
2018-08-04T05:31:10.129Z,1228.00
2018-08-04T05:32:10.109Z,1252.00
2018-08-04T05:34:02.950Z,1308.00
2018-08-04T05:35:02.897Z,1336.00
2018-08-04T05:36:55.731Z,1376.00
2018-08-04T05:37:55.689Z,1392.00
2018-08-04T05:39:49.042Z,1424.00
2018-08-04T05:40:48.981Z,1440.00
2018-08-04T05:42:41.805Z,1476.00
2018-08-04T05:43:41.822Z,1488.00
2018-08-04T05:45:34.606Z,1504.00
2018-08-04T05:46:34.568Z,1520.00
2018-08-04T05:48:27.415Z,1568.00
2018-08-04T05:49:27.365Z,1596.00
2018-08-04T05:51:20.202Z,1688.00
2018-08-04T05:52:20.194Z,1736.00
2018-08-04T05:54:13.485Z,1820.00
2018-08-04T05:55:13.445Z,1872.00
2018-08-04T05:57:06.270Z,1908.00
2018-08-04T05:58:06.289Z,1900.00
2018-08-04T05:59:59.065Z,1852.00
2018-08-04T06:00:59.027Z,1824.00
2018-08-04T06:02:51.875Z,1784.00
2018-08-04T06:03:51.826Z,1768.00
2018-08-04T06:05:45.177Z,1776.00
2018-08-04T06:06:45.125Z,1776.00
2018-08-04T06:08:37.966Z,1812.00
2018-08-04T06:09:37.925Z,1852.00
2018-08-04T06:11:30.756Z,1988.00
2018-08-04T06:12:30.732Z,2044.00
2018-08-04T06:14:23.584Z,2128.00
2018-08-04T06:15:23.531Z,2156.00
2018-08-04T06:17:16.351Z,2164.00
2018-08-04T06:18:16.326Z,2160.00
2018-08-04T06:20:09.153Z,2112.00
2018-08-04T06:21:09.110Z,2112.00
2018-08-04T06:23:01.933Z,2132.00
2018-08-04T06:24:01.898Z,2128.00
2018-08-04T06:25:54.745Z,2240.00
2018-08-04T06:26:54.686Z,2388.00
2018-08-04T06:28:48.011Z,2584.00
2018-08-04T06:29:47.973Z,2624.00
2018-08-04T06:31:41.317Z,2760.00
2018-08-04T06:32:41.260Z,2836.00
2018-08-04T06:34:34.105Z,2972.00
2018-08-04T06:35:34.064Z,3060.00
2018-08-04T06:37:26.901Z,3132.00
2018-08-04T06:38:26.847Z,3128.00
2018-08-04T06:40:19.693Z,3080.00
2018-08-04T06:41:19.724Z,3000.00
2018-08-04T06:43:12.488Z,2844.00
2018-08-04T06:44:12.439Z,2748.00
2018-08-04T06:46:05.283Z,2592.00
2018-08-04T06:47:05.243Z,2540.00
2018-08-04T06:48:58.058Z,2572.00
2018-08-04T06:49:58.033Z,2584.00
2018-08-04T06:51:50.873Z,2500.00
2018-08-04T06:52:50.829Z,2472.00
2018-08-04T06:54:43.640Z,2536.00
2018-08-04T06:55:43.613Z,2648.00
2018-08-04T06:57:36.456Z,3076.00
2018-08-04T06:58:36.413Z,3164.00
2018-08-04T07:00:29.262Z,3328.00
2018-08-04T07:01:29.217Z,3496.00
2018-08-04T07:03:22.034Z,3656.00
2018-08-04T07:04:21.999Z,3524.00
2018-08-04T07:06:14.858Z,3328.00
2018-08-04T07:07:14.809Z,3300.00
2018-08-04T07:09:07.623Z,3428.00
2018-08-04T07:10:07.598Z,3572.00
2018-08-04T07:12:00.422Z,3684.00
2018-08-04T07:13:00.388Z,3632.00
2018-08-04T07:14:53.226Z,3460.00
2018-08-04T07:15:53.180Z,3360.00
2018-08-04T07:17:46.024Z,3140.00
2018-08-04T07:18:45.981Z,3028.00
2018-08-04T07:20:38.805Z,2808.00
2018-08-04T07:21:38.775Z,2676.00
2018-08-04T07:23:31.620Z,2488.00
2018-08-04T07:24:31.579Z,2428.00
2018-08-04T07:26:24.403Z,2512.00
2018-08-04T07:27:24.368Z,2652.00
2018-08-04T07:29:17.247Z,2996.00
2018-08-04T07:30:17.160Z,3252.00
2018-08-04T07:32:10.021Z,3548.00
2018-08-04T07:33:09.978Z,3536.00
2018-08-04T07:35:02.801Z,3548.00
2018-08-04T07:36:02.751Z,3672.00
2018-08-04T07:37:55.580Z,3856.00
2018-08-04T07:38:55.550Z,3872.00
2018-08-04T07:40:48.380Z,3672.00
2018-08-04T07:41:48.339Z,3468.00
2018-08-04T07:43:41.177Z,3320.00
2018-08-04T07:44:41.146Z,3244.00
2018-08-04T07:46:33.981Z,3136.00
2018-08-04T07:47:33.979Z,3192.00
2018-08-04T07:49:26.829Z,3444.00
2018-08-04T07:50:26.716Z,3448.00
2018-08-04T07:52:20.090Z,3456.00
2018-08-04T07:53:20.014Z,3676.00
2018-08-04T07:55:12.860Z,3676.00
2018-08-04T07:56:12.812Z,3872.00
2018-08-04T07:58:05.659Z,4044.00
2018-08-04T07:59:05.647Z,3884.00
2018-08-04T08:00:58.974Z,3624.00
2018-08-04T08:01:59.029Z,3696.00
2018-08-04T08:03:51.751Z,4004.00
2018-08-04T08:04:51.711Z,4052.00
2018-08-04T08:06:45.020Z,4072.00
2018-08-04T08:07:45.000Z,4168.00
2018-08-04T08:09:37.814Z,4092.00
2018-08-04T08:10:37.886Z,3868.00
2018-08-04T08:12:30.626Z,3732.00
2018-08-04T08:13:30.594Z,3664.00
2018-08-04T08:15:23.926Z,3772.00
2018-08-04T08:16:23.966Z,3916.00
2018-08-04T08:18:18.080Z,4236.00
2018-08-04T08:19:18.099Z,4220.00
2018-08-04T08:21:10.925Z,4180.00
2018-08-04T08:22:10.922Z,4028.00
2018-08-04T08:24:04.196Z,4004.00
2018-08-04T08:25:04.156Z,4064.00
2018-08-04T08:26:57.570Z,4128.00
2018-08-04T08:27:57.457Z,4092.00
2018-08-04T08:29:50.793Z,4304.00
2018-08-04T08:30:50.746Z,4260.00
2018-08-04T08:32:44.151Z,4368.00
2018-08-04T08:33:44.052Z,4440.00
2018-08-04T08:35:37.007Z,4520.00
2018-08-04T08:36:36.843Z,4552.00
2018-08-04T08:38:30.157Z,4600.00
2018-08-04T08:39:30.146Z,4604.00
2018-08-04T08:41:23.126Z,4640.00
2018-08-04T08:42:23.082Z,4652.00
2018-08-04T08:44:15.756Z,4624.00
2018-08-04T08:45:15.748Z,4644.00
2018-08-04T08:47:08.660Z,4684.00
2018-08-04T08:48:08.528Z,4704.00
2018-08-04T08:50:01.901Z,4720.00
2018-08-04T08:51:01.828Z,4728.00
2018-08-04T08:52:54.656Z,4740.00
2018-08-04T08:53:54.702Z,4752.00
2018-08-04T08:55:47.976Z,4780.00
2018-08-04T08:56:47.936Z,4792.00
2018-08-04T08:58:40.777Z,4840.00
2018-08-04T08:59:40.737Z,4864.00
2018-08-04T09:01:34.079Z,4876.00
2018-08-04T09:02:34.042Z,4892.00
2018-08-04T09:04:27.853Z,4956.00
2018-08-04T09:05:27.820Z,4956.00
2018-08-04T09:07:20.664Z,4944.00
2018-08-04T09:08:20.629Z,4940.00
2018-08-04T09:10:13.472Z,4964.00
2018-08-04T09:11:13.449Z,4980.00
2018-08-04T09:13:06.293Z,4976.00
2018-08-04T09:14:06.245Z,4980.00
2018-08-04T09:15:59.091Z,4988.00
2018-08-04T09:16:59.052Z,4984.00
2018-08-04T09:18:52.364Z,5048.00
2018-08-04T09:19:52.335Z,5072.00
2018-08-04T09:21:45.197Z,5116.00
2018-08-04T09:22:45.150Z,5152.00
2018-08-04T09:24:37.978Z,5176.00
2018-08-04T09:25:37.960Z,5180.00
2018-08-04T09:27:30.793Z,5208.00
2018-08-04T09:28:30.754Z,5212.00
2018-08-04T09:30:23.577Z,5192.00
2018-08-04T09:31:23.548Z,5184.00
2018-08-04T09:33:16.394Z,5184.00
2018-08-04T09:34:16.355Z,5204.00
2018-08-04T09:36:09.195Z,5124.00
2018-08-04T09:37:09.200Z,5132.00
2018-08-04T09:39:02.047Z,5132.00
2018-08-04T09:40:01.965Z,5148.00
2018-08-04T09:41:54.809Z,5164.00
2018-08-04T09:42:54.781Z,5184.00
2018-08-04T09:44:48.098Z,3284.00
2018-08-04T09:45:48.069Z,3320.00
2018-08-04T09:47:40.929Z,3332.00
2018-08-04T09:48:40.890Z,3336.00
2018-08-04T09:50:33.713Z,3380.00
2018-08-04T09:51:33.688Z,3356.00
2018-08-04T09:53:26.521Z,3388.00
2018-08-04T09:54:26.490Z,3372.00
2018-08-04T09:56:19.319Z,3516.00
2018-08-04T09:57:19.285Z,3396.00
2018-08-04T09:59:12.145Z,3508.00
2018-08-04T10:00:12.095Z,3744.00
2018-08-04T10:02:04.914Z,26176.00
2018-08-04T10:03:04.905Z,30592.00
2018-08-04T10:04:58.236Z,32224.00
2018-08-04T10:05:58.199Z,31456.00
2018-08-04T10:07:51.549Z,29600.00
2018-08-04T10:08:51.514Z,27232.00
2018-08-04T10:10:44.359Z,23264.00
2018-08-04T10:11:44.325Z,20960.00
2018-08-04T10:13:37.166Z,18656.00
2018-08-04T10:14:37.124Z,18464.00
2018-08-04T10:16:29.956Z,17408.00
2018-08-04T10:17:29.930Z,17344.00
2018-08-04T10:19:22.798Z,16992.00
2018-08-04T10:20:22.835Z,16704.00
2018-08-04T10:22:15.581Z,16480.00
2018-08-04T10:23:15.559Z,16640.00
2018-08-04T10:25:08.431Z,16608.00
2018-08-04T10:26:08.453Z,16672.00
2018-08-04T10:28:01.246Z,16320.00
2018-08-04T10:29:01.213Z,16352.00
2018-08-04T10:30:54.052Z,16448.00
2018-08-04T10:31:54.119Z,16416.00
2018-08-04T10:33:46.901Z,16160.00
2018-08-04T10:34:46.857Z,15852.00
2018-08-04T10:36:39.711Z,15432.00
2018-08-04T10:37:39.693Z,15308.00
2018-08-04T10:39:32.553Z,15236.00
2018-08-04T10:40:32.543Z,15256.00
2018-08-04T10:42:25.367Z,15172.00
2018-08-04T10:43:25.344Z,15072.00
2018-08-04T10:45:18.218Z,15004.00
2018-08-04T10:46:18.163Z,15128.00
2018-08-04T10:48:11.021Z,14980.00
2018-08-04T10:49:10.997Z,14896.00
2018-08-04T10:51:03.887Z,15036.00
2018-08-04T10:52:03.815Z,14888.00
2018-08-04T10:53:56.682Z,14920.00
2018-08-04T10:54:56.656Z,14876.00
2018-08-04T10:56:49.501Z,14668.00
2018-08-04T10:57:49.482Z,14604.00
2018-08-04T10:59:42.358Z,14548.00
2018-08-04T11:00:42.346Z,14640.00
2018-08-04T11:02:35.188Z,14384.00
2018-08-04T11:03:35.215Z,14380.00
2018-08-04T11:05:28.029Z,14180.00
2018-08-04T11:06:28.006Z,14092.00
2018-08-04T11:08:20.864Z,14156.00
2018-08-04T11:09:20.834Z,14376.00
2018-08-04T11:11:13.690Z,14380.00
2018-08-04T11:12:13.657Z,14120.00
2018-08-04T11:14:06.499Z,14132.00
2018-08-04T11:15:06.494Z,14160.00
2018-08-04T11:16:59.433Z,14144.00
2018-08-04T11:17:59.448Z,14176.00
2018-08-04T11:19:52.277Z,14016.00
2018-08-04T11:20:52.263Z,13980.00
2018-08-04T11:22:45.090Z,14104.00
2018-08-04T11:23:45.068Z,13960.00
2018-08-04T11:25:37.943Z,13760.00
2018-08-04T11:26:37.944Z,13680.00
2018-08-04T11:28:30.738Z,13808.00
2018-08-04T11:29:30.718Z,13736.00
2018-08-04T11:31:23.579Z,13700.00
2018-08-04T11:32:23.577Z,13380.00
2018-08-04T11:34:16.390Z,13396.00
2018-08-04T11:35:16.382Z,13260.00
2018-08-04T11:37:09.232Z,13304.00
2018-08-04T11:38:09.198Z,13096.00
2018-08-04T11:40:02.049Z,13052.00
2018-08-04T11:41:02.024Z,12860.00
2018-08-04T11:42:54.903Z,12900.00
2018-08-04T11:43:54.862Z,12728.00
2018-08-04T11:45:47.714Z,12848.00
2018-08-04T11:46:47.685Z,11752.00
2018-08-04T11:48:40.575Z,11844.00
2018-08-04T11:49:40.528Z,12724.00
2018-08-04T11:51:33.897Z,12136.00
2018-08-04T11:52:33.844Z,12840.00
2018-08-04T11:54:26.686Z,12804.00
2018-08-04T11:55:26.676Z,12720.00
2018-08-04T11:57:19.528Z,12644.00
2018-08-04T11:58:19.563Z,12760.00
2018-08-04T12:00:12.663Z,12644.00
2018-08-04T12:01:12.323Z,12732.00
2018-08-04T12:03:05.669Z,11980.00
2018-08-04T12:04:05.651Z,12052.00
2018-08-04T12:05:58.498Z,12004.00
2018-08-04T12:06:58.473Z,11800.00
2018-08-04T12:08:51.349Z,11664.00
2018-08-04T12:09:51.310Z,11088.00
2018-08-04T12:11:44.168Z,12060.00
2018-08-04T12:12:44.139Z,12436.00
2018-08-04T12:14:36.984Z,12816.00
2018-08-04T12:15:36.983Z,12636.00
2018-08-04T12:17:29.836Z,11940.00
2018-08-04T12:18:29.815Z,11476.00
2018-08-04T12:20:22.640Z,12708.00
2018-08-04T12:21:22.681Z,11856.00
2018-08-04T12:23:15.482Z,12844.00
2018-08-04T12:24:15.446Z,12556.00
2018-08-04T12:26:08.294Z,13020.00
2018-08-04T12:27:08.279Z,12972.00
2018-08-04T12:29:01.160Z,12708.00
2018-08-04T12:30:01.100Z,12372.00
2018-08-04T12:31:53.971Z,12116.00
2018-08-04T12:32:53.959Z,11256.00
2018-08-04T12:34:46.855Z,10688.00
2018-08-04T12:35:46.784Z,11684.00
2018-08-04T12:37:39.699Z,12648.00
2018-08-04T12:38:39.610Z,12588.00
2018-08-04T12:40:32.459Z,12432.00
2018-08-04T12:41:32.437Z,12152.00
2018-08-04T12:43:25.284Z,13008.00
2018-08-04T12:44:25.260Z,13344.00
2018-08-04T12:46:18.606Z,13024.00
2018-08-04T12:47:18.595Z,12164.00
2018-08-04T12:49:11.460Z,11624.00
2018-08-04T12:50:11.427Z,12512.00
2018-08-04T12:52:04.300Z,12360.00
2018-08-04T12:53:04.285Z,12572.00
2018-08-04T12:54:57.142Z,12680.00
2018-08-04T12:55:57.111Z,12396.00
2018-08-04T12:57:50.456Z,12512.00
2018-08-04T12:58:50.426Z,12416.00
2018-08-04T13:00:43.797Z,11432.00
2018-08-04T13:01:43.779Z,11788.00
2018-08-04T13:03:36.612Z,10684.00
2018-08-04T13:04:36.589Z,10684.00
2018-08-04T13:06:29.949Z,9920.00
2018-08-04T13:07:29.918Z,9656.00
2018-08-04T13:09:22.786Z,10228.00
2018-08-04T13:10:22.747Z,10808.00
2018-08-04T13:12:15.587Z,10412.00
2018-08-04T13:13:15.568Z,10996.00
2018-08-04T13:15:08.434Z,11036.00
2018-08-04T13:16:08.393Z,10424.00
2018-08-04T13:18:01.260Z,10216.00
2018-08-04T13:19:01.244Z,9892.00
2018-08-04T13:20:54.588Z,10124.00
2018-08-04T13:21:54.584Z,9864.00
2018-08-04T13:23:47.401Z,9448.00
2018-08-04T13:24:47.378Z,8972.00
2018-08-04T13:26:40.743Z,9704.00
2018-08-04T13:27:40.715Z,9216.00
2018-08-04T13:29:33.608Z,8188.00
2018-08-04T13:30:33.537Z,9276.00
2018-08-04T13:32:26.384Z,9672.00
2018-08-04T13:33:26.374Z,9468.00
2018-08-04T13:35:19.721Z,9820.00
2018-08-04T13:36:19.687Z,9972.00
2018-08-04T13:38:12.529Z,10240.00
2018-08-04T13:39:12.501Z,10188.00
2018-08-04T13:41:05.353Z,10292.00
2018-08-04T13:42:05.318Z,10260.00
2018-08-04T13:43:58.663Z,9960.00
2018-08-04T13:44:58.652Z,9808.00
2018-08-04T13:46:51.505Z,9400.00
2018-08-04T13:47:51.473Z,9400.00
2018-08-04T13:49:44.310Z,9168.00
2018-08-04T13:50:44.296Z,9160.00
2018-08-04T13:52:37.158Z,9072.00
2018-08-04T13:53:37.123Z,8972.00
2018-08-04T13:55:30.485Z,8844.00
2018-08-04T13:56:30.460Z,8944.00
2018-08-04T13:58:23.294Z,8720.00
2018-08-04T13:59:23.279Z,8728.00
2018-08-04T14:01:16.129Z,8588.00
2018-08-04T14:02:16.088Z,8560.00
2018-08-04T14:04:08.939Z,8428.00
2018-08-04T14:05:08.920Z,8480.00
2018-08-04T14:07:01.784Z,8464.00
2018-08-04T14:08:01.757Z,8420.00
2018-08-04T14:09:54.588Z,8220.00
2018-08-04T14:10:54.598Z,8288.00
2018-08-04T14:12:47.423Z,7868.00
2018-08-04T14:13:47.396Z,8312.00
2018-08-04T14:15:40.239Z,7984.00
2018-08-04T14:16:40.240Z,8240.00
2018-08-04T14:18:33.571Z,8176.00
2018-08-04T14:19:33.530Z,7636.00
2018-08-04T14:21:26.861Z,7588.00
2018-08-04T14:22:26.856Z,8004.00
2018-08-04T14:24:19.719Z,7684.00
2018-08-04T14:25:19.675Z,7868.00
2018-08-04T14:27:12.581Z,7568.00
2018-08-04T14:28:12.556Z,7676.00
2018-08-04T14:30:05.410Z,7656.00
2018-08-04T14:31:05.374Z,7392.00
2018-08-04T14:32:58.332Z,7104.00
2018-08-04T14:33:58.262Z,7316.00
2018-08-04T14:35:51.215Z,7584.00
2018-08-04T14:36:51.094Z,7560.00
2018-08-04T14:38:44.076Z,7652.00
2018-08-04T14:39:43.925Z,7672.00
2018-08-04T14:41:36.751Z,7616.00
2018-08-04T14:42:36.786Z,7560.00
2018-08-04T14:44:29.595Z,7388.00
2018-08-04T14:45:29.551Z,7452.00
2018-08-04T14:47:22.412Z,6660.00
2018-08-04T14:48:22.386Z,7044.00
2018-08-04T14:50:15.934Z,7344.00
2018-08-04T14:51:15.205Z,6964.00
2018-08-04T14:53:08.636Z,7256.00
2018-08-04T14:54:08.597Z,7132.00
2018-08-04T14:56:01.413Z,7416.00
2018-08-04T14:57:01.402Z,7392.00
2018-08-04T14:58:54.755Z,7180.00
2018-08-04T14:59:54.727Z,7356.00
2018-08-04T15:01:47.620Z,7204.00
2018-08-04T15:02:47.546Z,7192.00
2018-08-04T15:04:40.428Z,6728.00
2018-08-04T15:05:40.366Z,6864.00
2018-08-04T15:07:33.207Z,6900.00
2018-08-04T15:08:33.248Z,5828.00
2018-08-04T15:10:26.053Z,6724.00
2018-08-04T15:11:26.027Z,6560.00
2018-08-04T15:13:18.870Z,6784.00
2018-08-04T15:14:18.837Z,7012.00
2018-08-04T15:16:12.192Z,7020.00
2018-08-04T15:17:12.168Z,6800.00
2018-08-04T15:19:05.508Z,6136.00
2018-08-04T15:20:05.470Z,5780.00
2018-08-04T15:21:58.346Z,6684.00
2018-08-04T15:22:58.302Z,6808.00
2018-08-04T15:24:51.631Z,6544.00
2018-08-04T15:25:51.608Z,6300.00
2018-08-04T15:27:44.499Z,7140.00
2018-08-04T15:28:44.435Z,6784.00
2018-08-04T15:30:37.268Z,6668.00
2018-08-04T15:31:37.250Z,6600.00
2018-08-04T15:33:30.078Z,6848.00
2018-08-04T15:34:30.063Z,6292.00
2018-08-04T15:36:22.915Z,6620.00
2018-08-04T15:37:22.876Z,6964.00
2018-08-04T15:39:15.708Z,6728.00
2018-08-04T15:40:15.686Z,6164.00
2018-08-04T15:42:09.042Z,4600.00
2018-08-04T15:43:09.007Z,5100.00
2018-08-04T15:45:02.364Z,6820.00
2018-08-04T15:46:02.333Z,6340.00
2018-08-04T15:47:55.159Z,7240.00
2018-08-04T15:48:55.138Z,7592.00
2018-08-04T15:50:47.989Z,7720.00
2018-08-04T15:51:47.951Z,8068.00
2018-08-04T15:53:40.793Z,8600.00
2018-08-04T15:54:40.773Z,8472.00
2018-08-04T15:56:34.121Z,7880.00
2018-08-04T15:57:34.077Z,7240.00
2018-08-04T15:59:26.912Z,5992.00
2018-08-04T16:00:26.889Z,5748.00
2018-08-04T16:02:19.758Z,7492.00
2018-08-04T16:03:19.722Z,6776.00
2018-08-04T16:05:12.570Z,7044.00
2018-08-04T16:06:12.529Z,7352.00
2018-08-04T16:08:05.383Z,7920.00
2018-08-04T16:09:05.341Z,8172.00
2018-08-04T16:10:58.204Z,7028.00
2018-08-04T16:11:58.154Z,5092.00
2018-08-04T16:13:51.018Z,7660.00
2018-08-04T16:14:50.973Z,7400.00
2018-08-04T16:16:43.878Z,5416.00
2018-08-04T16:17:43.820Z,4848.00
2018-08-04T16:19:36.685Z,4504.00
2018-08-04T16:20:36.640Z,4564.00
2018-08-04T16:22:29.483Z,4904.00
2018-08-04T16:23:29.450Z,6756.00
2018-08-04T16:25:22.310Z,7240.00
2018-08-04T16:26:22.278Z,7104.00
2018-08-04T16:28:15.130Z,7448.00
2018-08-04T16:29:15.094Z,6984.00
2018-08-04T16:31:08.420Z,6000.00
2018-08-04T16:32:08.398Z,6936.00
2018-08-04T16:34:01.255Z,7152.00
2018-08-04T16:35:01.226Z,6596.00
2018-08-04T16:36:54.074Z,5460.00
2018-08-04T16:37:54.039Z,6132.00
2018-08-04T16:39:46.863Z,5892.00
2018-08-04T16:40:46.835Z,5940.00
2018-08-04T16:42:39.703Z,6028.00
2018-08-04T16:43:39.663Z,5904.00
2018-08-04T16:45:32.495Z,6504.00
2018-08-04T16:46:32.484Z,6088.00
2018-08-04T16:48:25.349Z,5944.00
2018-08-04T16:49:25.368Z,5740.00
2018-08-04T16:51:18.150Z,5224.00
2018-08-04T16:52:18.125Z,4608.00
2018-08-04T16:54:10.994Z,4684.00
2018-08-04T16:55:10.946Z,4868.00
2018-08-04T16:57:03.787Z,4756.00
2018-08-04T16:58:03.756Z,5140.00
2018-08-04T16:59:56.596Z,4596.00
2018-08-04T17:00:56.557Z,4328.00
2018-08-04T17:02:49.440Z,4152.00
2018-08-04T17:03:49.374Z,4300.00
2018-08-04T17:05:42.221Z,4480.00
2018-08-04T17:06:42.212Z,4612.00
2018-08-04T17:08:35.051Z,3440.00
2018-08-04T17:09:35.017Z,3200.00
2018-08-04T17:11:27.845Z,3776.00
2018-08-04T17:12:27.826Z,3432.00
2018-08-04T17:14:20.676Z,3864.00
2018-08-04T17:15:20.625Z,4156.00
2018-08-04T17:17:13.508Z,3740.00
2018-08-04T17:18:13.572Z,1836.00
2018-08-04T17:20:06.356Z,1660.00
2018-08-04T17:21:06.357Z,1860.00
2018-08-04T17:22:59.157Z,1764.00
2018-08-04T17:23:59.116Z,2052.00
2018-08-04T17:25:51.961Z,1980.00
2018-08-04T17:26:51.917Z,1772.00
2018-08-04T17:28:44.796Z,1584.00
2018-08-04T17:29:44.738Z,1552.00
2018-08-04T17:31:37.568Z,1500.00
2018-08-04T17:32:37.561Z,1500.00
2018-08-04T17:34:30.382Z,1484.00
2018-08-04T17:35:30.371Z,1456.00
2018-08-04T17:37:23.277Z,1160.00
2018-08-04T17:38:23.162Z,1124.00
2018-08-04T17:40:16.074Z,1036.00
2018-08-04T17:41:15.975Z,1020.00
2018-08-04T17:43:08.802Z,976.00
2018-08-04T17:44:08.781Z,964.00